Time;durP1;ratioP1;P1;durP2;ratioP2;P2;SDS_P1;SDS_P2;PMS_P1;PMS_P2;Temp;Humidity;BMP_temperature;BMP_pressure;BME280_temperature;BME280_humidity;BME280_pressure;Samples;Min_cycle;Max_cycle;Signal;HPM_P1;HPM_P2
2022/11/27 00:01:15;;;;;;;23.00;8.15;;;6.50;99.90;;;;;;5080417;28;20040;-74
2022/11/27 00:03:41;;;;;;;22.23;7.78;;;6.40;99.90;;;;;;5094524;28;20044;-74
2022/11/27 00:06:11;;;;;;;27.30;7.97;;;6.50;99.90;;;;;;5059302;28;20048;-74
2022/11/27 00:08:37;;;;;;;21.40;7.95;;;6.50;99.90;;;;;;5039452;28;20052;-73
2022/11/27 00:11:09;;;;;;;20.35;8.60;;;6.40;99.90;;;;;;5071464;28;20048;-74
2022/11/27 00:13:35;;;;;;;19.50;8.13;;;6.40;99.90;;;;;;5085905;28;20047;-74
2022/11/27 00:16:02;;;;;;;24.33;8.38;;;6.30;99.90;;;;;;5075867;28;20044;-74
2022/11/27 00:18:28;;;;;;;19.95;8.98;;;6.30;99.90;;;;;;5077978;28;20051;-75
2022/11/27 00:20:54;;;;;;;21.52;8.02;;;6.30;99.90;;;;;;5093180;28;20050;-74
2022/11/27 00:23:20;;;;;;;24.80;8.85;;;6.30;99.90;;;;;;5087523;28;20387;-75
2022/11/27 00:25:52;;;;;;;18.73;8.35;;;6.40;99.90;;;;;;5088808;28;20044;-74
2022/11/27 00:28:19;;;;;;;20.45;8.30;;;6.40;99.90;;;;;;5077828;28;20044;-74
2022/11/27 00:30:45;;;;;;;20.33;8.30;;;6.40;99.90;;;;;;5078783;28;20488;-75
2022/11/27 00:33:10;;;;;;;21.65;9.07;;;6.40;99.90;;;;;;5077635;28;20052;-75
2022/11/27 00:35:38;;;;;;;21.30;8.05;;;6.30;99.90;;;;;;5104387;28;20124;-75
2022/11/27 00:38:04;;;;;;;23.73;8.80;;;6.30;99.90;;;;;;5083256;28;20051;-74
2022/11/27 00:40:30;;;;;;;24.60;8.90;;;6.20;99.90;;;;;;5077817;28;20040;-74
2022/11/27 00:42:56;;;;;;;18.67;8.80;;;6.20;99.90;;;;;;5060645;28;20476;-75
2022/11/27 00:45:21;;;;;;;21.63;8.60;;;6.20;99.90;;;;;;5096841;28;20039;-74
2022/11/27 00:47:47;;;;;;;25.15;9.70;;;6.10;99.90;;;;;;5094703;28;20513;-74
2022/11/27 00:50:13;;;;;;;20.35;8.40;;;6.10;99.90;;;;;;5065586;28;20499;-75
2022/11/27 00:52:39;;;;;;;21.63;8.80;;;6.10;99.90;;;;;;5097613;28;20051;-75
2022/11/27 00:55:05;;;;;;;22.33;8.90;;;6.10;99.90;;;;;;5096783;28;20497;-74
2022/11/27 00:57:31;;;;;;;22.00;9.50;;;6.10;99.90;;;;;;5094860;28;20177;-74
2022/11/27 00:59:56;;;;;;;21.02;8.60;;;6.90;99.90;;;;;;5062416;28;20135;-75
2022/11/27 01:02:22;;;;;;;20.77;9.00;;;6.00;99.90;;;;;;5076168;28;20054;-75
2022/11/27 01:04:48;;;;;;;22.17;8.55;;;6.00;99.90;;;;;;5091194;28;20181;-74
2022/11/27 01:07:14;;;;;;;20.23;8.02;;;5.90;99.90;;;;;;5069161;28;20067;-74
2022/11/27 01:09:39;;;;;;;19.30;8.98;;;5.90;99.90;;;;;;5095268;28;20039;-75
2022/11/27 01:12:05;;;;;;;19.25;9.13;;;5.90;99.90;;;;;;5080574;28;20071;-76
2022/11/27 01:14:31;;;;;;;20.88;8.93;;;5.90;99.90;;;;;;5080941;28;20044;-74
2022/11/27 01:16:57;;;;;;;20.42;8.57;;;5.90;99.90;;;;;;5081563;28;20487;-75
2022/11/27 01:19:23;;;;;;;20.40;9.15;;;6.00;99.90;;;;;;5063421;28;20040;-75
2022/11/27 01:21:49;;;;;;;19.48;8.35;;;5.80;99.90;;;;;;5079175;28;20055;-76
2022/11/27 01:24:15;;;;;;;18.38;8.10;;;5.90;99.90;;;;;;5068767;28;20475;-75
2022/11/27 01:26:42;;;;;;;20.30;8.40;;;5.90;99.90;;;;;;5086771;28;20035;-74
2022/11/27 01:29:07;;;;;;;21.90;8.23;;;5.90;99.90;;;;;;5063289;28;20143;-75
2022/11/27 01:31:33;;;;;;;20.63;8.48;;;5.90;99.90;;;;;;5085190;28;20381;-76
2022/11/27 01:34:03;;;;;;;19.88;8.57;;;5.80;99.90;;;;;;5075413;28;20068;-75
2022/11/27 01:36:30;;;;;;;20.75;9.00;;;5.80;99.90;;;;;;5082448;28;20548;-74
2022/11/27 01:38:56;;;;;;;20.52;8.48;;;5.80;99.90;;;;;;5097184;28;20087;-74
2022/11/27 01:41:28;;;;;;;20.10;8.23;;;5.80;99.90;;;;;;5073519;28;20500;-75
2022/11/27 01:44:22;;;;;;;19.13;8.35;;;5.80;99.90;;;;;;5072269;28;20170;-75
2022/11/27 01:46:50;;;;;;;18.80;8.20;;;5.80;99.90;;;;;;5088009;28;20044;-74
2022/11/27 01:49:32;;;;;;;20.63;8.73;;;5.80;99.90;;;;;;5090430;28;20075;-74
2022/11/27 01:52:06;;;;;;;19.08;8.35;;;5.80;99.90;;;;;;5099716;28;20052;-73
2022/11/27 01:54:42;;;;;;;23.90;9.52;;;5.80;99.90;;;;;;5079500;28;20050;-75
2022/11/27 01:57:21;;;;;;;23.08;9.20;;;5.70;99.90;;;;;;5059549;28;20188;-75
2022/11/27 01:59:48;;;;;;;22.00;8.77;;;5.70;99.90;;;;;;5096058;28;20070;-75
2022/11/27 02:02:14;;;;;;;20.10;8.43;;;5.70;99.90;;;;;;5082981;28;20048;-74
2022/11/27 02:04:39;;;;;;;21.23;9.05;;;5.70;99.90;;;;;;5076445;28;20062;-75
2022/11/27 02:07:05;;;;;;;19.77;8.90;;;5.60;99.90;;;;;;5084265;28;20361;-75
2022/11/27 02:09:31;;;;;;;20.10;8.73;;;5.70;99.90;;;;;;5074741;28;20047;-75
2022/11/27 02:12:34;;;;;;;22.95;9.50;;;5.60;99.90;;;;;;5071897;28;20051;-75
2022/11/27 02:15:11;;;;;;;21.13;9.18;;;5.40;99.90;;;;;;5056775;28;20056;-75
2022/11/27 02:18:03;;;;;;;19.65;8.23;;;5.40;99.90;;;;;;5087272;28;20083;-75
2022/11/27 02:20:43;;;;;;;22.20;8.60;;;5.40;99.90;;;;;;5088460;28;20052;-74
2022/11/27 02:23:46;;;;;;;17.88;8.32;;;5.40;99.90;;;;;;5075641;28;20059;-75
2022/11/27 02:26:51;;;;;;;14.55;8.10;;;5.50;99.90;;;;;;5093644;28;20094;-74
2022/11/27 02:29:22;;;;;;;16.30;8.00;;;5.50;99.90;;;;;;5075916;28;20044;-74
2022/11/27 02:31:51;;;;;;;18.27;7.90;;;5.40;99.90;;;;;;5088597;28;20495;-75
2022/11/27 02:34:37;;;;;;;17.50;8.18;;;5.40;99.90;;;;;;5081266;28;20126;-75
2022/11/27 02:37:15;;;;;;;18.75;8.10;;;5.40;99.90;;;;;;5094653;28;20090;-74
2022/11/27 02:40:01;;;;;;;18.10;7.85;;;5.50;99.90;;;;;;5095789;28;20340;-74
2022/11/27 02:42:53;;;;;;;17.60;6.97;;;5.40;99.90;;;;;;5078526;28;20126;-74
2022/11/27 02:45:34;;;;;;;15.73;7.82;;;5.50;99.90;;;;;;5087856;28;20507;-74
2022/11/27 02:48:00;;;;;;;18.83;8.13;;;5.50;99.90;;;;;;5078525;28;20055;-74
2022/11/27 02:50:28;;;;;;;17.48;7.40;;;5.40;99.90;;;;;;5081726;28;20040;-74
2022/11/27 02:52:58;;;;;;;20.13;7.57;;;5.50;99.90;;;;;;5075137;28;20046;-73
2022/11/27 02:55:29;;;;;;;17.17;7.57;;;5.50;99.90;;;;;;5075113;28;20048;-74
2022/11/27 02:57:57;;;;;;;15.32;7.47;;;5.40;99.90;;;;;;5093312;28;20051;-75
2022/11/27 03:00:23;;;;;;;17.05;7.57;;;5.40;99.90;;;;;;5084958;28;20036;-74
2022/11/27 03:02:53;;;;;;;20.92;7.05;;;5.30;99.90;;;;;;5076747;28;20109;-74
2022/11/27 03:05:22;;;;;;;17.25;6.28;;;5.40;99.90;;;;;;5085409;28;20510;-74
2022/11/27 03:08:26;;;;;;;18.98;6.95;;;5.40;99.90;;;;;;5058381;28;20059;-74
2022/11/27 03:11:10;;;;;;;17.45;6.93;;;5.40;99.90;;;;;;5080987;28;20557;-75
2022/11/27 03:13:42;;;;;;;18.73;7.47;;;5.40;99.90;;;;;;5087912;28;20392;-74
2022/11/27 03:16:21;;;;;;;21.33;7.38;;;5.30;99.90;;;;;;5074595;28;20056;-75
2022/11/27 03:19:09;;;;;;;19.20;7.63;;;5.30;99.90;;;;;;5081927;28;20602;-74
2022/11/27 03:21:37;;;;;;;16.77;7.22;;;5.30;99.90;;;;;;5094000;28;20043;-75
2022/11/27 03:24:04;;;;;;;17.67;6.95;;;5.30;99.90;;;;;;5090020;28;20048;-74
2022/11/27 03:26:30;;;;;;;18.00;6.63;;;5.30;99.90;;;;;;5074294;28;20048;-74
2022/11/27 03:28:58;;;;;;;17.27;6.50;;;5.40;99.90;;;;;;5091862;28;20040;-73
2022/11/27 03:31:25;;;;;;;18.38;7.07;;;5.40;99.90;;;;;;5084545;28;20114;-74
2022/11/27 03:33:52;;;;;;;16.08;6.97;;;5.30;99.90;;;;;;5089993;28;20054;-74
2022/11/27 03:36:19;;;;;;;14.52;6.30;;;5.40;99.90;;;;;;5081754;28;20054;-73
2022/11/27 03:38:47;;;;;;;18.83;6.35;;;5.40;99.90;;;;;;5072878;28;20048;-73
2022/11/27 03:41:49;;;;;;;15.00;6.70;;;5.40;99.90;;;;;;5075600;28;20051;-74
2022/11/27 03:44:47;;;;;;;19.67;7.13;;;5.40;99.90;;;;;;5072050;28;20055;-73
2022/11/27 03:47:39;;;;;;;16.95;6.60;;;5.30;99.90;;;;;;5027715;28;20449;-74
2022/11/27 03:50:19;;;;;;;17.23;5.75;;;5.30;99.90;;;;;;5083297;28;20074;-77
2022/11/27 03:53:16;;;;;;;17.40;6.30;;;5.40;99.90;;;;;;5065515;28;20051;-74
2022/11/27 03:55:58;;;;;;;16.08;6.28;;;5.40;99.90;;;;;;5077598;28;20177;-73
2022/11/27 03:58:27;;;;;;;15.57;5.68;;;5.40;99.90;;;;;;5081466;28;20425;-75
2022/11/27 04:00:55;;;;;;;16.73;6.95;;;5.40;99.90;;;;;;5085138;28;20036;-73
2022/11/27 04:03:27;;;;;;;16.05;6.43;;;5.30;99.90;;;;;;5082344;28;20070;-75
2022/11/27 04:05:52;;;;;;;17.05;6.15;;;5.30;99.90;;;;;;5087850;28;20070;-74
2022/11/27 04:08:19;;;;;;;15.32;6.57;;;5.30;99.90;;;;;;5078318;28;20186;-74
2022/11/27 04:10:45;;;;;;;14.82;5.45;;;5.50;99.90;;;;;;5085181;28;20070;-73
2022/11/27 04:13:11;;;;;;;16.27;5.72;;;5.20;99.90;;;;;;5080095;28;20074;-75
2022/11/27 04:15:37;;;;;;;16.13;6.75;;;5.20;99.90;;;;;;5108149;28;20403;-74
2022/11/27 04:18:03;;;;;;;15.05;6.25;;;5.20;99.90;;;;;;5082713;28;20142;-74
2022/11/27 04:20:28;;;;;;;16.55;6.03;;;5.20;99.90;;;;;;5077121;28;20131;-73
2022/11/27 04:22:55;;;;;;;18.15;6.18;;;5.30;99.90;;;;;;5061616;28;20142;-73
2022/11/27 04:25:21;;;;;;;15.05;5.60;;;5.20;99.90;;;;;;5060977;28;20549;-73
2022/11/27 04:27:47;;;;;;;16.02;6.20;;;5.70;99.90;;;;;;5098189;28;20039;-74
2022/11/27 04:30:13;;;;;;;15.85;6.25;;;5.20;99.90;;;;;;5056409;28;20101;-74
2022/11/27 04:32:39;;;;;;;17.38;6.03;;;5.20;99.90;;;;;;5063074;28;20408;-74
2022/11/27 04:35:05;;;;;;;15.35;5.60;;;5.20;99.90;;;;;;5068839;28;20545;-73
2022/11/27 04:37:31;;;;;;;16.63;5.93;;;5.20;99.90;;;;;;5073294;28;20052;-74
2022/11/27 04:39:57;;;;;;;11.82;3.97;;;5.20;99.90;;;;;;5067650;28;20097;-74
2022/11/27 04:42:22;;;;;;;15.27;5.45;;;5.30;99.90;;;;;;5044959;28;20495;-74
2022/11/27 04:44:48;;;;;;;14.23;5.32;;;5.30;99.90;;;;;;5064116;28;20040;-75
2022/11/27 04:47:14;;;;;;;13.05;5.70;;;4.70;99.90;;;;;;5077527;28;20438;-73
2022/11/27 04:49:39;;;;;;;14.32;5.28;;;5.40;99.90;;;;;;5074304;28;20041;-74
2022/11/27 04:52:05;;;;;;;17.00;5.88;;;5.30;99.90;;;;;;5068834;28;20055;-73
2022/11/27 04:54:31;;;;;;;15.75;6.25;;;5.20;99.90;;;;;;5073247;28;20051;-74
2022/11/27 04:56:57;;;;;;;13.52;5.57;;;5.30;99.90;;;;;;5047244;28;20052;-74
2022/11/27 04:59:22;;;;;;;20.45;6.07;;;5.20;99.90;;;;;;5071552;28;20197;-73
2022/11/27 05:01:48;;;;;;;16.85;5.90;;;5.20;99.90;;;;;;5065241;28;20436;-72
2022/11/27 05:04:14;;;;;;;12.32;5.50;;;5.60;99.90;;;;;;5077540;28;20048;-73
2022/11/27 05:06:40;;;;;;;15.52;6.10;;;5.10;99.90;;;;;;5069587;28;20064;-74
2022/11/27 05:09:06;;;;;;;14.23;5.78;;;5.10;99.90;;;;;;5036013;28;20052;-74
2022/11/27 05:11:32;;;;;;;16.13;6.20;;;5.10;99.90;;;;;;5058594;28;20048;-72
2022/11/27 05:14:13;;;;;;;13.68;6.03;;;5.10;99.90;;;;;;5056987;28;20056;-73
2022/11/27 05:16:40;;;;;;;14.30;5.82;;;5.10;99.90;;;;;;5071194;28;20094;-74
2022/11/27 05:19:09;;;;;;;17.67;6.07;;;5.10;99.90;;;;;;5057200;28;20098;-74
2022/11/27 05:21:35;;;;;;;20.40;6.28;;;5.10;99.90;;;;;;5039264;28;20044;-74
2022/11/27 05:24:01;;;;;;;14.98;6.10;;;5.10;99.90;;;;;;5065668;28;20040;-73
2022/11/27 05:26:27;;;;;;;11.70;5.68;;;5.00;99.90;;;;;;5065217;28;20048;-74
2022/11/27 05:28:52;;;;;;;13.93;6.30;;;5.10;99.90;;;;;;5059344;28;20047;-74
2022/11/27 05:31:18;;;;;;;13.95;6.28;;;5.10;99.90;;;;;;5059626;28;20056;-73
2022/11/27 05:33:44;;;;;;;17.77;6.25;;;5.00;99.90;;;;;;5091729;28;20406;-73
2022/11/27 05:36:09;;;;;;;10.73;5.40;;;5.00;99.90;;;;;;5089638;28;20446;-73
2022/11/27 05:38:35;;;;;;;13.77;5.25;;;5.10;99.90;;;;;;5068941;28;20089;-73
2022/11/27 05:41:01;;;;;;;14.05;6.00;;;5.10;99.90;;;;;;5076989;28;20051;-74
2022/11/27 05:43:26;;;;;;;15.05;6.00;;;5.10;99.90;;;;;;5086165;28;20040;-72
2022/11/27 05:45:52;;;;;;;13.13;6.18;;;5.30;99.90;;;;;;5042784;28;20441;-73
2022/11/27 05:48:18;;;;;;;15.23;5.75;;;5.40;99.90;;;;;;5085394;28;20040;-73
2022/11/27 05:50:43;;;;;;;14.57;5.78;;;5.00;99.90;;;;;;5081414;28;20044;-72
2022/11/27 05:53:09;;;;;;;15.30;6.28;;;5.00;99.90;;;;;;5096734;28;20071;-73
2022/11/27 05:55:35;;;;;;;16.40;6.47;;;5.00;99.90;;;;;;5114591;28;20047;-73
2022/11/27 05:58:00;;;;;;;13.60;5.38;;;5.30;99.90;;;;;;5091516;28;20510;-74
2022/11/27 06:00:26;;;;;;;14.77;5.85;;;5.10;99.90;;;;;;5070285;28;20055;-73
2022/11/27 06:02:52;;;;;;;13.93;5.18;;;5.10;99.90;;;;;;5063451;28;20050;-73
2022/11/27 06:05:18;;;;;;;12.85;5.53;;;5.00;99.90;;;;;;5067228;28;20398;-73
2022/11/27 06:07:43;;;;;;;13.50;5.78;;;5.10;99.90;;;;;;5080993;28;20123;-73
2022/11/27 06:10:09;;;;;;;12.95;5.45;;;5.00;99.90;;;;;;5042701;28;20075;-73
2022/11/27 06:12:35;;;;;;;15.43;6.07;;;5.10;99.90;;;;;;5075750;28;20044;-73
2022/11/27 06:15:01;;;;;;;11.68;5.10;;;5.00;99.90;;;;;;5080187;28;20081;-72
2022/11/27 06:17:26;;;;;;;12.70;5.85;;;5.00;99.90;;;;;;5086458;28;20035;-73
2022/11/27 06:19:52;;;;;;;13.35;5.85;;;5.00;99.90;;;;;;5072573;28;20044;-74
2022/11/27 06:22:18;;;;;;;14.57;5.93;;;5.00;99.90;;;;;;5045915;28;20040;-73
2022/11/27 06:24:43;;;;;;;15.20;6.18;;;5.00;99.90;;;;;;5075793;28;20052;-74
2022/11/27 06:27:09;;;;;;;12.57;6.20;;;5.00;99.90;;;;;;5072626;28;20040;-73
2022/11/27 06:29:36;;;;;;;13.98;6.10;;;5.10;99.90;;;;;;5084621;28;20051;-74
2022/11/27 06:32:02;;;;;;;15.93;5.90;;;5.00;99.90;;;;;;5080337;28;20052;-73
2022/11/27 06:34:29;;;;;;;13.50;5.50;;;5.00;99.90;;;;;;5075966;28;20105;-73
2022/11/27 06:36:54;;;;;;;12.40;5.97;;;5.00;99.90;;;;;;5061774;28;20537;-74
2022/11/27 06:39:20;;;;;;;14.70;6.20;;;5.00;99.90;;;;;;5057459;28;20040;-73
2022/11/27 06:41:46;;;;;;;15.48;6.20;;;5.90;99.90;;;;;;5075238;28;20484;-74
2022/11/27 06:44:12;;;;;;;13.73;6.18;;;4.90;99.90;;;;;;5058669;28;20040;-74
2022/11/27 06:46:37;;;;;;;15.18;6.30;;;5.10;99.90;;;;;;5049423;28;20445;-71
2022/11/27 06:49:03;;;;;;;13.77;6.25;;;5.00;99.90;;;;;;5069886;28;20048;-72
2022/11/27 06:51:30;;;;;;;16.30;6.00;;;5.00;99.90;;;;;;5091491;28;20078;-74
2022/11/27 06:53:58;;;;;;;13.63;6.35;;;5.40;99.90;;;;;;5075531;28;20048;-73
2022/11/27 06:56:26;;;;;;;12.55;5.97;;;5.00;99.90;;;;;;5058370;28;20124;-73
2022/11/27 06:58:57;;;;;;;13.82;6.05;;;5.00;99.90;;;;;;5063344;28;20054;-74
2022/11/27 07:01:25;;;;;;;11.87;6.10;;;5.80;99.90;;;;;;5039796;28;20052;-74
2022/11/27 07:03:51;;;;;;;12.15;6.45;;;5.00;99.90;;;;;;5082536;28;20434;-73
2022/11/27 07:06:20;;;;;;;14.45;6.13;;;5.00;99.90;;;;;;5057177;28;20535;-73
2022/11/27 07:08:46;;;;;;;14.70;6.18;;;4.90;99.90;;;;;;5073080;28;20051;-73
2022/11/27 07:11:15;;;;;;;14.00;6.32;;;5.00;99.90;;;;;;5081218;28;20044;-73
2022/11/27 07:13:41;;;;;;;14.63;5.70;;;5.00;99.90;;;;;;5067702;28;20053;-74
2022/11/27 07:16:08;;;;;;;12.75;6.18;;;5.10;99.90;;;;;;5065051;28;20052;-73
2022/11/27 07:18:49;;;;;;;12.18;5.35;;;5.00;99.90;;;;;;5078098;28;20058;-73
2022/11/27 07:21:15;;;;;;;16.77;6.28;;;5.10;99.90;;;;;;5077486;28;20091;-73
2022/11/27 07:23:41;;;;;;;13.68;6.25;;;5.20;99.90;;;;;;5071806;28;20048;-73
2022/11/27 07:26:12;;;;;;;9.60;4.53;;;5.10;99.90;;;;;;5045975;28;20044;-74
2022/11/27 07:28:38;;;;;;;15.02;6.50;;;5.20;99.90;;;;;;5063028;28;20046;-74
2022/11/27 07:31:04;;;;;;;15.73;6.45;;;5.10;99.90;;;;;;5058010;28;20122;-73
2022/11/27 07:33:30;;;;;;;13.98;6.43;;;5.00;99.90;;;;;;5068655;28;20051;-73
2022/11/27 07:36:03;;;;;;;17.05;6.82;;;5.00;99.90;;;;;;5066325;28;20051;-74
2022/11/27 07:38:28;;;;;;;14.77;6.82;;;5.00;99.90;;;;;;5087142;28;20043;-73
2022/11/27 07:40:54;;;;;;;12.40;6.68;;;5.00;99.90;;;;;;5065885;28;20443;-73
2022/11/27 07:43:20;;;;;;;13.15;6.70;;;5.00;99.90;;;;;;5098884;28;20082;-73
2022/11/27 07:45:46;;;;;;;14.85;6.95;;;5.80;99.90;;;;;;5090223;28;20114;-74
2022/11/27 07:48:11;;;;;;;12.68;6.13;;;5.00;99.90;;;;;;5098877;28;20040;-73
2022/11/27 07:50:39;;;;;;;13.75;6.13;;;5.10;99.90;;;;;;5089808;28;20526;-73
2022/11/27 07:53:04;;;;;;;13.00;6.40;;;5.20;99.90;;;;;;5093407;28;20051;-73
2022/11/27 07:55:30;;;;;;;13.77;5.70;;;5.40;99.90;;;;;;5063376;28;20044;-74
2022/11/27 07:57:56;;;;;;;11.68;6.50;;;4.50;99.90;;;;;;5070812;28;20040;-73
2022/11/27 08:00:21;;;;;;;11.18;4.85;;;5.60;99.90;;;;;;5074440;28;20411;-72
2022/11/27 08:02:47;;;;;;;13.93;5.53;;;5.20;99.90;;;;;;5070149;28;20490;-73
2022/11/27 08:05:13;;;;;;;13.85;5.32;;;5.20;99.90;;;;;;5071472;28;20109;-73
2022/11/27 08:07:39;;;;;;;11.43;6.43;;;5.20;99.90;;;;;;5070637;28;20043;-73
2022/11/27 08:10:05;;;;;;;14.18;7.05;;;5.20;99.90;;;;;;5073544;28;20123;-73
2022/11/27 08:12:31;;;;;;;11.98;6.45;;;5.10;99.90;;;;;;5071739;28;20097;-73
2022/11/27 08:14:57;;;;;;;12.98;6.25;;;5.30;99.90;;;;;;5086184;28;20060;-73
2022/11/27 08:17:23;;;;;;;12.90;6.63;;;5.10;99.90;;;;;;5087008;28;20086;-73
2022/11/27 08:19:48;;;;;;;11.85;4.82;;;5.20;99.90;;;;;;5077230;28;20040;-73
2022/11/27 08:22:18;;;;;;;13.60;6.40;;;5.20;99.90;;;;;;5072743;28;20032;-72
2022/11/27 08:24:44;;;;;;;12.10;5.75;;;5.20;99.90;;;;;;5081318;28;20130;-72
2022/11/27 08:27:10;;;;;;;11.38;5.97;;;5.30;99.90;;;;;;5088636;28;20054;-72
2022/11/27 08:29:39;;;;;;;13.90;5.68;;;5.30;99.90;;;;;;5087507;28;20040;-73
2022/11/27 08:32:05;;;;;;;12.73;6.72;;;5.30;99.90;;;;;;5061237;28;20080;-72
2022/11/27 08:34:32;;;;;;;14.48;6.32;;;5.40;99.90;;;;;;5081818;28;20044;-72
2022/11/27 08:36:57;;;;;;;13.73;6.93;;;5.30;99.90;;;;;;5077771;28;20048;-72
2022/11/27 08:39:25;;;;;;;12.60;6.47;;;5.30;99.90;;;;;;5092544;28;20048;-73
2022/11/27 08:41:51;;;;;;;12.00;6.32;;;5.30;99.90;;;;;;5069616;28;20044;-72
2022/11/27 08:44:17;;;;;;;11.65;6.18;;;5.50;99.90;;;;;;5066782;28;20467;-72
2022/11/27 08:46:43;;;;;;;14.35;6.50;;;5.40;99.90;;;;;;5072985;28;20079;-72
2022/11/27 08:49:09;;;;;;;13.00;6.15;;;5.60;99.90;;;;;;5055879;28;20044;-72
2022/11/27 08:51:35;;;;;;;12.43;6.10;;;5.80;99.90;;;;;;5058033;28;20045;-72
2022/11/27 08:54:01;;;;;;;12.90;6.78;;;5.50;99.90;;;;;;5067388;28;20464;-73
2022/11/27 08:56:26;;;;;;;15.13;6.68;;;5.40;99.90;;;;;;5048846;28;20115;-74
2022/11/27 08:58:53;;;;;;;11.45;6.38;;;5.60;99.90;;;;;;5086027;28;20170;-72
2022/11/27 09:01:20;;;;;;;13.43;6.00;;;5.60;99.90;;;;;;5068928;28;20193;-72
2022/11/27 09:03:46;;;;;;;11.70;5.65;;;5.60;99.90;;;;;;5075594;28;20404;-70
2022/11/27 09:06:17;;;;;;;12.00;5.85;;;5.70;99.90;;;;;;5072312;28;20040;-72
2022/11/27 09:08:43;;;;;;;11.85;6.13;;;5.70;99.90;;;;;;5066717;28;20048;-73
2022/11/27 09:11:11;;;;;;;16.08;6.80;;;5.70;99.90;;;;;;5051367;28;20048;-73
2022/11/27 09:13:38;;;;;;;13.68;6.95;;;5.70;99.90;;;;;;5075696;28;20051;-73
2022/11/27 09:16:06;;;;;;;14.80;6.43;;;5.60;99.90;;;;;;5071935;28;20078;-72
2022/11/27 09:18:32;;;;;;;16.92;7.03;;;5.70;99.90;;;;;;5053233;28;20052;-73
2022/11/27 09:21:04;;;;;;;13.63;6.10;;;5.90;99.90;;;;;;5072719;28;20076;-73
2022/11/27 09:23:30;;;;;;;14.40;7.00;;;5.70;99.90;;;;;;5081076;28;20097;-73
2022/11/27 09:25:59;;;;;;;14.80;6.97;;;5.80;99.90;;;;;;5076709;28;20419;-73
2022/11/27 09:28:25;;;;;;;13.30;6.78;;;5.70;99.90;;;;;;5078431;28;20040;-72
2022/11/27 09:30:55;;;;;;;17.25;7.50;;;5.70;99.90;;;;;;5074412;28;20040;-72
2022/11/27 09:33:23;;;;;;;15.00;6.50;;;5.70;99.90;;;;;;5057481;28;20079;-73
2022/11/27 09:35:49;;;;;;;13.05;6.82;;;6.10;99.90;;;;;;5088558;28;20128;-73
2022/11/27 09:38:15;;;;;;;13.23;7.18;;;5.70;99.90;;;;;;5073773;28;20076;-73
2022/11/27 09:40:49;;;;;;;13.98;7.13;;;5.80;99.90;;;;;;5057195;28;20036;-73
2022/11/27 09:43:16;;;;;;;13.85;7.13;;;5.80;99.90;;;;;;5053535;28;20040;-73
2022/11/27 09:45:53;;;;;;;13.95;7.43;;;5.90;99.90;;;;;;5064611;28;20105;-73
2022/11/27 09:48:31;;;;;;;13.35;6.82;;;6.10;99.90;;;;;;5079660;28;20113;-72
2022/11/27 09:50:59;;;;;;;15.15;6.70;;;5.80;99.90;;;;;;5074129;28;20153;-73
2022/11/27 09:53:50;;;;;;;13.85;7.50;;;5.80;99.90;;;;;;5075005;28;20554;-73
2022/11/27 09:56:17;;;;;;;14.50;6.05;;;5.70;99.90;;;;;;5057013;28;20055;-72
2022/11/27 09:58:49;;;;;;;15.10;7.00;;;5.70;99.90;;;;;;5051678;28;20048;-72
2022/11/27 10:01:26;;;;;;;14.55;7.05;;;5.70;99.90;;;;;;5062487;28;20154;-73
2022/11/27 10:03:53;;;;;;;14.20;7.10;;;5.70;99.90;;;;;;5055386;28;20044;-73
2022/11/27 10:06:32;;;;;;;14.48;8.02;;;5.70;99.90;;;;;;5059420;28;20047;-72
2022/11/27 10:09:22;;;;;;;15.75;8.05;;;5.60;99.90;;;;;;5066175;28;20040;-72
2022/11/27 10:12:19;;;;;;;15.23;8.13;;;5.60;99.90;;;;;;5083304;28;20052;-72
2022/11/27 10:15:03;;;;;;;14.38;7.95;;;5.60;99.90;;;;;;5080113;28;20041;-72
2022/11/27 10:17:36;;;;;;;13.13;6.65;;;5.60;99.90;;;;;;5077943;28;20052;-72
2022/11/27 10:20:27;;;;;;;14.13;6.45;;;5.70;99.90;;;;;;5080838;28;20092;-73
2022/11/27 10:23:03;;;;;;;13.77;6.82;;;5.70;99.90;;;;;;5085493;28;20051;-73
2022/11/27 10:25:47;;;;;;;14.18;6.80;;;5.70;99.90;;;;;;5080362;28;20090;-72
2022/11/27 10:28:22;;;;;;;16.48;7.10;;;5.70;99.90;;;;;;5082571;28;20048;-72
2022/11/27 10:30:54;;;;;;;11.50;6.25;;;5.70;99.90;;;;;;5060938;28;20075;-73
2022/11/27 10:33:34;;;;;;;13.10;6.80;;;5.70;99.90;;;;;;5079601;28;20086;-73
2022/11/27 10:36:00;;;;;;;15.18;6.60;;;5.70;99.90;;;;;;5074999;28;20040;-72
2022/11/27 10:38:28;;;;;;;15.40;7.43;;;5.60;99.90;;;;;;5090182;27;20039;-72
2022/11/27 10:41:28;;;;;;;14.63;7.18;;;5.70;99.90;;;;;;5089618;28;20418;-72
2022/11/27 10:43:56;;;;;;;15.73;7.53;;;5.70;99.90;;;;;;5075906;28;20078;-72
2022/11/27 10:46:29;;;;;;;13.85;7.95;;;5.70;99.90;;;;;;5086877;28;20540;-71
2022/11/27 10:48:55;;;;;;;14.48;6.65;;;5.60;99.90;;;;;;5073132;28;20130;-73
2022/11/27 10:51:28;;;;;;;15.27;7.60;;;5.70;99.90;;;;;;5086915;28;20078;-72
2022/11/27 10:53:54;;;;;;;16.95;8.13;;;5.70;99.90;;;;;;5084741;28;20048;-72
2022/11/27 10:56:58;;;;;;;18.40;8.20;;;5.70;99.90;;;;;;5071321;28;20057;-73
2022/11/27 10:59:34;;;;;;;14.35;7.57;;;5.70;99.90;;;;;;5023289;27;20052;-71
2022/11/27 11:02:02;;;;;;;16.35;7.88;;;5.70;99.90;;;;;;5084720;28;20055;-72
2022/11/27 11:04:29;;;;;;;15.20;7.97;;;5.70;99.90;;;;;;5078510;27;20047;-72
2022/11/27 11:06:56;;;;;;;13.63;8.10;;;5.70;99.90;;;;;;5112263;27;20064;-72
2022/11/27 11:09:31;;;;;;;13.95;7.72;;;5.70;99.90;;;;;;5098403;27;20047;-71
2022/11/27 11:12:08;;;;;;;13.80;8.25;;;5.70;99.90;;;;;;5082475;27;20058;-72
2022/11/27 11:14:34;;;;;;;14.10;7.68;;;5.70;99.90;;;;;;5080532;28;20048;-72
2022/11/27 11:17:00;;;;;;;15.63;7.60;;;5.70;99.90;;;;;;5082238;28;20130;-73
2022/11/27 11:19:37;;;;;;;13.23;7.45;;;5.80;99.90;;;;;;5075617;28;20130;-72
2022/11/27 11:22:12;;;;;;;16.00;8.73;;;5.80;99.90;;;;;;5081808;28;20036;-72
2022/11/27 11:24:42;;;;;;;14.57;8.07;;;5.80;99.90;;;;;;5100009;28;20509;-72
2022/11/27 11:27:19;;;;;;;16.00;8.75;;;5.80;99.90;;;;;;5099324;28;20043;-74
2022/11/27 11:29:45;;;;;;;15.25;8.10;;;5.80;99.90;;;;;;5084471;28;20047;-73
2022/11/27 11:32:18;;;;;;;18.23;8.77;;;5.90;99.90;;;;;;5099343;28;20066;-73
2022/11/27 11:34:46;;;;;;;16.15;8.30;;;5.90;99.90;;;;;;5093727;28;20048;-74
2022/11/27 11:37:19;;;;;;;15.05;8.20;;;5.90;99.90;;;;;;5092553;28;20052;-73
2022/11/27 11:39:51;;;;;;;10.50;5.28;;;5.90;99.90;;;;;;5096612;28;20122;-74
2022/11/27 11:42:29;;;;;;;15.07;7.72;;;6.00;99.90;;;;;;5079055;28;20098;-72
2022/11/27 11:45:02;;;;;;;13.95;7.75;;;6.00;99.90;;;;;;5099603;28;20067;-72
2022/11/27 11:47:28;;;;;;;13.35;6.38;;;6.00;99.90;;;;;;5097107;28;20196;-72
2022/11/27 11:49:55;;;;;;;15.70;8.27;;;6.00;99.90;;;;;;5075996;28;20702;-74
2022/11/27 11:52:53;;;;;;;15.18;7.82;;;6.00;99.90;;;;;;5065505;28;20072;-72
2022/11/27 11:55:23;;;;;;;14.75;8.65;;;6.10;99.90;;;;;;5092070;28;20068;-72
2022/11/27 11:57:49;;;;;;;17.50;8.90;;;6.10;99.90;;;;;;5092896;28;20089;-72
2022/11/27 12:00:22;;;;;;;13.35;8.32;;;6.00;99.90;;;;;;5081671;28;20039;-73
2022/11/27 12:03:26;;;;;;;16.48;8.40;;;6.10;99.90;;;;;;5073069;28;20590;-73
2022/11/27 12:06:10;;;;;;;16.95;7.78;;;6.10;99.90;;;;;;5038289;28;20055;-72
2022/11/27 12:08:48;;;;;;;14.77;8.27;;;6.20;99.90;;;;;;5093814;28;20470;-72
2022/11/27 12:11:32;;;;;;;18.70;8.27;;;6.20;99.90;;;;;;5075131;28;20059;-73
2022/11/27 12:14:10;;;;;;;14.95;8.30;;;6.20;99.90;;;;;;5110236;28;20048;-73
2022/11/27 12:16:41;;;;;;;15.00;8.90;;;6.20;99.90;;;;;;5096994;28;20134;-72
2022/11/27 12:19:31;;;;;;;14.57;8.40;;;6.20;99.90;;;;;;5095320;28;20063;-72
2022/11/27 12:22:13;;;;;;;18.65;9.65;;;6.20;99.90;;;;;;5098318;27;20048;-72
2022/11/27 12:24:51;;;;;;;15.95;9.07;;;6.20;99.90;;;;;;5100132;27;20071;-70
2022/11/27 12:27:31;;;;;;;9.43;5.60;;;6.20;99.90;;;;;;5084177;27;20089;-73
2022/11/27 12:30:35;;;;;;;14.75;8.27;;;6.30;99.90;;;;;;5121011;27;20058;-73
2022/11/27 12:33:16;;;;;;;15.60;8.55;;;6.30;99.90;;;;;;5119211;27;20060;-73
2022/11/27 12:35:45;;;;;;;14.07;8.02;;;6.30;99.90;;;;;;5095200;27;20056;-73
2022/11/27 12:38:51;;;;;;;15.20;7.63;;;6.30;99.90;;;;;;5102767;27;20139;-72
2022/11/27 12:41:35;;;;;;;9.30;4.38;;;6.80;99.90;;;;;;5052121;28;20484;-72
2022/11/27 12:44:01;;;;;;;7.95;4.15;;;6.40;99.90;;;;;;5107815;28;20061;-71
2022/11/27 12:46:37;;;;;;;14.13;7.95;;;6.50;99.90;;;;;;5097452;27;20072;-72
2022/11/27 12:49:51;;;;;;;16.08;7.82;;;6.50;99.90;;;;;;5097389;27;20119;-71
2022/11/27 12:52:26;;;;;;;12.00;6.63;;;6.40;99.90;;;;;;5091001;27;20549;-73
2022/11/27 12:55:11;;;;;;;13.00;6.30;;;6.40;99.90;;;;;;5102296;27;20042;-73
2022/11/27 12:57:50;;;;;;;12.52;6.65;;;6.50;99.90;;;;;;5102881;27;20485;-72
2022/11/27 13:00:22;;;;;;;13.35;6.97;;;6.50;99.90;;;;;;5099509;27;20051;-73
2022/11/27 13:03:06;;;;;;;12.07;7.15;;;6.50;99.90;;;;;;5101130;27;20187;-73
2022/11/27 13:05:40;;;;;;;13.07;7.38;;;6.50;99.90;;;;;;5091899;28;20044;-73
2022/11/27 13:08:17;;;;;;;16.08;8.25;;;6.50;99.90;;;;;;5099982;27;20059;-74